Terminal Aerodrome Forecast
Issued by NWS

Home | Current Version | Previous Version | Text Only | Print | Product List | Glossary On
Versions: 1 2 3 4 5 6 7 8 9 10 11 12 13 14
000
FTAK31 PANC 231136
TAFATK
TAF
PATK 231136Z 2312/2412 VRB03KT 1SM -SN BR OVC015
     FM231900 VRB05KT 1/2SM SN FG OVC015
     FM240100 02006KT 2SM -SN BR BKN015 OVC025
     FM240500 02008KT 4SM -SHSN BR BKN025 OVC050
     FM241000 02008KT P6SM SCT050 BKN080=

USA.gov is the U.S. government's official web portal to all federal, state and local government web resources and services.